createdAt,value
2022-11-15T00:01:26.578Z,7.96
2022-11-15T00:06:27.024Z,7.73
2022-11-15T00:11:20.814Z,7.88
2022-11-15T00:16:14.186Z,7.92
2022-11-15T00:21:12.803Z,7.94
2022-11-15T00:26:06.900Z,7.94
2022-11-15T00:31:04.142Z,8.13
2022-11-15T00:36:08.803Z,8.02
2022-11-15T00:41:10.276Z,8.06
2022-11-15T00:46:06.868Z,8.04
2022-11-15T00:51:04.425Z,8.02
2022-11-15T00:55:57.913Z,8.02
2022-11-15T01:00:57.199Z,8.08
2022-11-15T01:05:52.280Z,8.13
2022-11-15T01:10:45.708Z,8.02
2022-11-15T01:15:42.839Z,8.02
2022-11-15T01:20:47.153Z,7.93
2022-11-15T01:25:47.874Z,7.87
2022-11-15T01:30:45.754Z,7.92
2022-11-15T01:35:55.613Z,7.96
2022-11-15T01:40:52.181Z,7.90
2022-11-15T01:46:01.345Z,7.95
2022-11-15T01:50:58.277Z,7.76
2022-11-15T01:55:52.095Z,7.82
2022-11-15T02:00:47.752Z,7.65
2022-11-15T02:05:52.121Z,7.73
2022-11-15T02:10:52.765Z,7.77
2022-11-15T02:16:22.491Z,7.53
2022-11-15T02:21:31.749Z,7.61
2022-11-15T02:27:36.454Z,7.73
2022-11-15T02:32:44.633Z,7.73
2022-11-15T02:37:50.830Z,7.63
2022-11-15T02:43:12.523Z,7.71
2022-11-15T02:48:24.431Z,7.67
2022-11-15T02:53:26.676Z,7.52
2022-11-15T02:59:14.375Z,7.56
2022-11-15T03:04:27.513Z,7.40
2022-11-15T03:09:36.197Z,7.57
2022-11-15T03:14:40.765Z,7.55
2022-11-15T03:19:52.314Z,7.58
2022-11-15T03:24:49.062Z,7.55
2022-11-15T03:29:55.583Z,7.68
2022-11-15T03:35:04.643Z,7.60
2022-11-15T03:40:00.692Z,7.72
2022-11-15T03:45:04.598Z,7.73
2022-11-15T03:50:13.152Z,7.75
2022-11-15T03:55:12.724Z,7.68
2022-11-15T04:00:08.210Z,7.65
2022-11-15T04:05:05.004Z,7.70
2022-11-15T04:10:07.074Z,7.58
2022-11-15T04:15:11.866Z,7.62
2022-11-15T04:20:31.864Z,7.55
2022-11-15T04:25:32.028Z,7.43
2022-11-15T04:30:25.661Z,7.54
2022-11-15T04:35:20.386Z,7.63
2022-11-15T04:40:16.384Z,7.60
2022-11-15T04:45:11.891Z,7.58
2022-11-15T04:50:10.113Z,7.57
2022-11-15T04:55:08.526Z,7.60
2022-11-15T05:00:13.867Z,7.45
2022-11-15T05:05:08.329Z,7.37
2022-11-15T05:10:01.711Z,7.42
2022-11-15T05:14:56.440Z,7.31
2022-11-15T05:19:49.873Z,7.38
2022-11-15T05:24:45.483Z,7.37
2022-11-15T05:29:39.246Z,7.46
2022-11-15T05:34:34.676Z,7.41
2022-11-15T05:39:28.007Z,7.47
2022-11-15T05:44:27.410Z,7.48
2022-11-15T05:49:27.095Z,7.43
2022-11-15T05:54:25.594Z,7.43
2022-11-15T05:59:22.675Z,7.47
2022-11-15T06:04:18.932Z,7.33
2022-11-15T06:09:12.932Z,7.34
2022-11-15T06:14:08.137Z,7.47
2022-11-15T06:19:05.556Z,7.50
2022-11-15T06:23:59.105Z,7.46
2022-11-15T06:28:52.596Z,7.44
2022-11-15T06:33:47.345Z,7.39
2022-11-15T06:38:43.566Z,7.43
2022-11-15T06:43:38.780Z,7.41
2022-11-15T06:48:33.699Z,7.47
2022-11-15T06:53:33.840Z,7.50
2022-11-15T06:58:27.604Z,7.49
2022-11-15T07:03:21.051Z,7.63
2022-11-15T07:08:14.347Z,7.73
2022-11-15T07:13:09.089Z,7.63
2022-11-15T07:18:03.445Z,7.79
2022-11-15T07:23:03.231Z,7.70
2022-11-15T07:28:01.496Z,7.38
2022-11-15T07:32:59.398Z,7.34
2022-11-15T07:37:57.940Z,7.65
2022-11-15T07:42:58.113Z,7.70
2022-11-15T07:47:52.209Z,7.88
2022-11-15T07:52:47.463Z,7.99
2022-11-15T07:57:40.852Z,7.87
2022-11-15T08:02:34.594Z,7.77
2022-11-15T08:07:32.465Z,8.08
2022-11-15T08:12:27.396Z,7.96
2022-11-15T08:17:20.730Z,8.11
2022-11-15T08:22:14.115Z,7.94
2022-11-15T08:27:15.732Z,7.78
2022-11-15T08:32:11.168Z,7.81
2022-11-15T08:37:04.388Z,7.91
2022-11-15T08:41:57.881Z,7.74
2022-11-15T08:46:51.335Z,7.81
2022-11-15T08:51:46.090Z,7.93
2022-11-15T08:56:39.648Z,7.99
2022-11-15T09:01:33.668Z,8.03
2022-11-15T09:06:27.176Z,8.13
2022-11-15T09:11:25.504Z,8.29
2022-11-15T09:16:22.055Z,8.19
2022-11-15T09:21:18.256Z,8.08
2022-11-15T09:26:15.936Z,8.42
2022-11-15T09:31:14.189Z,8.57
2022-11-15T09:36:12.488Z,8.38
2022-11-15T09:41:43.214Z,8.24
2022-11-15T09:47:06.445Z,7.99
2022-11-15T09:52:22.148Z,8.15
2022-11-15T09:57:19.951Z,8.26
2022-11-15T10:02:46.876Z,8.34
2022-11-15T10:07:54.509Z,8.34
2022-11-15T10:12:53.828Z,8.49
2022-11-15T10:18:19.769Z,8.27
2022-11-15T10:23:22.536Z,8.19
2022-11-15T10:28:30.273Z,8.02
2022-11-15T10:33:34.968Z,7.95
2022-11-15T10:38:29.775Z,7.99
2022-11-15T10:43:27.240Z,7.91
2022-11-15T10:48:31.122Z,8.05
2022-11-15T10:53:35.189Z,8.13
2022-11-15T10:58:45.506Z,8.32
2022-11-15T11:03:43.098Z,8.39
2022-11-15T11:08:39.134Z,8.27
2022-11-15T11:13:38.104Z,8.09
2022-11-15T11:18:40.478Z,8.28
2022-11-15T11:23:54.345Z,8.45
2022-11-15T11:29:18.291Z,8.33
2022-11-15T11:34:21.963Z,8.39
2022-11-15T11:39:38.862Z,8.48
2022-11-15T11:44:45.155Z,8.59
2022-11-15T11:49:48.409Z,8.63
2022-11-15T11:55:03.173Z,8.70
2022-11-15T12:00:06.208Z,8.81
2022-11-15T12:05:14.023Z,8.88
2022-11-15T12:10:24.799Z,9.02
2022-11-15T12:15:24.307Z,9.07
2022-11-15T12:20:21.710Z,9.12
2022-11-15T12:25:23.596Z,9.13
2022-11-15T12:30:20.865Z,9.14
2022-11-15T12:35:29.440Z,9.18
2022-11-15T12:40:37.323Z,9.21
2022-11-15T12:45:34.323Z,9.24
2022-11-15T12:50:57.207Z,9.22
2022-11-15T12:56:25.967Z,9.27
2022-11-15T13:02:04.641Z,9.26
2022-11-15T13:07:01.899Z,9.32
2022-11-15T13:11:58.036Z,9.46
2022-11-15T13:16:59.054Z,9.55
2022-11-15T13:22:10.769Z,9.51
2022-11-15T13:27:19.108Z,9.64
2022-11-15T13:32:15.362Z,9.60
2022-11-15T13:37:29.885Z,9.63
2022-11-15T13:42:24.659Z,9.59
2022-11-15T13:47:21.819Z,9.59
2022-11-15T13:52:18.007Z,9.49
2022-11-15T13:57:18.722Z,9.54
2022-11-15T14:02:19.026Z,9.47
2022-11-15T14:07:20.722Z,9.64
2022-11-15T14:12:32.814Z,9.70
2022-11-15T14:17:45.638Z,9.75
2022-11-15T14:22:54.435Z,9.69
2022-11-15T14:28:18.053Z,9.74
2022-11-15T14:33:27.702Z,9.72
2022-11-15T14:38:20.970Z,9.59
2022-11-15T14:43:16.146Z,9.61
2022-11-15T14:48:09.737Z,9.62
2022-11-15T14:53:03.853Z,9.48
2022-11-15T14:57:57.644Z,9.49
2022-11-15T15:02:56.168Z,9.48
2022-11-15T15:07:50.049Z,9.41
2022-11-15T15:12:45.345Z,9.52
2022-11-15T15:17:38.690Z,9.41
2022-11-15T15:22:33.621Z,9.31
2022-11-15T15:27:26.942Z,9.26
2022-11-15T15:32:20.204Z,9.20
2022-11-15T15:37:26.076Z,9.20
2022-11-15T15:42:21.692Z,9.19
2022-11-15T15:47:17.609Z,9.19
2022-11-15T15:52:10.893Z,9.15
2022-11-15T15:57:04.314Z,9.10
2022-11-15T16:01:58.958Z,9.12
2022-11-15T16:06:53.878Z,9.13
2022-11-15T16:11:48.675Z,9.12
2022-11-15T16:16:41.956Z,9.13
2022-11-15T16:21:39.391Z,9.13
2022-11-15T16:26:39.146Z,9.06
2022-11-15T16:31:32.557Z,9.08
2022-11-15T16:36:31.274Z,9.00
2022-11-15T16:41:26.092Z,9.01
2022-11-15T16:46:22.094Z,9.07
2022-11-15T16:51:16.282Z,9.06
2022-11-15T16:56:23.958Z,9.07
2022-11-15T17:01:24.616Z,9.10
2022-11-15T17:06:18.925Z,9.00
2022-11-15T17:11:17.953Z,8.82
2022-11-15T17:16:14.452Z,8.79
2022-11-15T17:21:14.381Z,8.84
2022-11-15T17:26:28.307Z,8.91
2022-11-15T17:31:22.097Z,9.01
2022-11-15T17:36:16.932Z,9.06
2022-11-15T17:41:15.535Z,9.09
2022-11-15T17:46:13.025Z,9.13
2022-11-15T17:51:12.140Z,9.14
2022-11-15T17:56:10.422Z,9.14
2022-11-15T18:01:08.862Z,9.11
2022-11-15T18:06:02.277Z,9.09
2022-11-15T18:11:07.917Z,8.93
2022-11-15T18:16:03.827Z,8.93
2022-11-15T18:21:03.718Z,9.00
2022-11-15T18:25:57.043Z,8.98
2022-11-15T18:30:51.736Z,9.00
2022-11-15T18:35:45.133Z,9.03
2022-11-15T18:40:38.392Z,9.02
2022-11-15T18:45:32.106Z,9.04
2022-11-15T18:50:26.796Z,9.04
2022-11-15T18:55:20.372Z,9.07
2022-11-15T19:00:15.758Z,9.12
2022-11-15T19:05:09.602Z,9.09
2022-11-15T19:10:04.713Z,9.08
2022-11-15T19:14:58.052Z,9.03
2022-11-15T19:19:51.759Z,9.05
2022-11-15T19:24:45.207Z,8.82
2022-11-15T19:29:40.572Z,8.79
2022-11-15T19:34:33.827Z,8.84
2022-11-15T19:39:27.160Z,8.80
2022-11-15T19:44:20.920Z,8.86
2022-11-15T19:49:15.599Z,8.89
2022-11-15T19:54:10.321Z,8.86
2022-11-15T19:59:04.924Z,8.80
2022-11-15T20:04:03.092Z,8.85
2022-11-15T20:09:01.231Z,8.85
2022-11-15T20:13:59.437Z,8.87
2022-11-15T20:19:04.789Z,8.89
2022-11-15T20:24:40.966Z,8.83
2022-11-15T20:29:43.908Z,8.84
2022-11-15T20:34:43.557Z,8.82
2022-11-15T20:39:37.120Z,8.74
2022-11-15T20:44:36.800Z,8.77
2022-11-15T20:49:31.521Z,8.83
2022-11-15T20:54:27.044Z,8.86
2022-11-15T20:59:20.482Z,8.70
2022-11-15T21:04:15.193Z,8.52
2022-11-15T21:09:26.176Z,8.66
2022-11-15T21:14:19.745Z,8.77
2022-11-15T21:19:14.853Z,8.78
2022-11-15T21:24:10.719Z,8.76
2022-11-15T21:29:04.881Z,8.86
2022-11-15T21:33:58.187Z,8.84
2022-11-15T21:38:53.689Z,8.95
2022-11-15T21:43:46.923Z,9.05
2022-11-15T21:48:40.220Z,9.03
2022-11-15T21:53:34.450Z,9.07
2022-11-15T21:58:31.085Z,9.13
2022-11-15T22:03:25.131Z,9.26
2022-11-15T22:08:18.404Z,9.37
2022-11-15T22:13:11.698Z,9.34
2022-11-15T22:18:06.845Z,9.34
2022-11-15T22:23:01.629Z,9.30
2022-11-15T22:27:55.860Z,9.29
2022-11-15T22:32:49.986Z,9.30
2022-11-15T22:37:46.633Z,9.34
2022-11-15T22:42:40.122Z,9.33
2022-11-15T22:47:33.616Z,9.37
2022-11-15T22:52:27.152Z,9.42
2022-11-15T22:57:22.012Z,9.30
2022-11-15T23:02:18.449Z,9.35
2022-11-15T23:07:12.030Z,9.28
2022-11-15T23:12:23.362Z,9.35
2022-11-15T23:17:18.344Z,9.29
2022-11-15T23:22:31.648Z,9.22
2022-11-15T23:27:25.420Z,9.23
2022-11-15T23:32:37.517Z,9.24
2022-11-15T23:37:31.060Z,9.25
2022-11-15T23:42:24.638Z,9.21
2022-11-15T23:47:20.077Z,9.22
2022-11-15T23:52:15.382Z,9.22
2022-11-15T23:57:11.997Z,9.24
